createdAt,value
2022-09-20T00:01:32.976Z,98183.47
2022-09-20T00:04:01.472Z,98184.84
2022-09-20T00:06:29.933Z,98186.50
2022-09-20T00:08:57.246Z,98201.03
2022-09-20T00:11:25.798Z,98198.28
2022-09-20T00:13:55.011Z,98188.69
2022-09-20T00:16:40.640Z,98194.50
2022-09-20T00:19:08.121Z,98181.03
2022-09-20T00:21:36.633Z,98198.50
2022-09-20T00:24:03.897Z,98191.13
2022-09-20T00:26:30.906Z,98194.94
2022-09-20T00:28:57.934Z,98189.47
2022-09-20T00:31:24.985Z,98189.47
2022-09-20T00:34:13.612Z,98188.94
2022-09-20T00:36:40.541Z,98188.34
2022-09-20T00:39:07.516Z,98192.72
2022-09-20T00:41:34.453Z,98200.38
2022-09-20T00:44:02.070Z,98197.06
2022-09-20T00:46:30.303Z,98200.38
2022-09-20T00:49:01.253Z,98200.09
2022-09-20T00:51:33.074Z,98189.44
2022-09-20T00:54:00.820Z,98182.03
2022-09-20T00:56:30.187Z,98202.00
2022-09-20T00:59:17.979Z,98200.38
2022-09-20T01:01:46.925Z,98204.75
2022-09-20T01:04:14.679Z,98205.56
2022-09-20T01:06:42.293Z,98196.00
2022-09-20T01:09:24.103Z,98202.00
2022-09-20T01:12:13.927Z,98197.88
2022-09-20T01:14:59.868Z,98206.91
2022-09-20T01:17:46.571Z,98199.78
2022-09-20T01:20:36.709Z,98199.50
2022-09-20T01:23:51.479Z,98202.53
2022-09-20T01:26:23.113Z,98202.78
2022-09-20T01:28:50.444Z,98205.78
2022-09-20T01:31:34.324Z,98205.78
2022-09-20T01:34:01.975Z,98207.41
2022-09-20T01:36:39.929Z,98212.31
2022-09-20T01:39:19.515Z,98210.16
2022-09-20T01:42:08.072Z,98204.69
2022-09-20T01:44:46.878Z,98212.88
2022-09-20T01:47:36.373Z,98210.72
2022-09-20T01:50:30.489Z,98210.97
2022-09-20T01:53:19.039Z,98203.06
2022-09-20T01:56:03.002Z,98218.34
2022-09-20T01:59:25.103Z,98218.34
2022-09-20T02:01:54.855Z,98221.34
2022-09-20T02:04:40.703Z,98216.13
2022-09-20T02:07:26.056Z,98201.31
2022-09-20T02:10:16.035Z,98214.47
2022-09-20T02:13:05.220Z,98204.06
2022-09-20T02:15:47.074Z,98202.16
2022-09-20T02:18:31.671Z,98208.44
2022-09-20T02:21:05.876Z,98221.03
2022-09-20T02:23:41.534Z,98215.56
2022-09-20T02:26:14.261Z,98209.84
2022-09-20T02:29:13.363Z,98218.03
2022-09-20T02:32:00.805Z,98217.19
2022-09-20T02:34:44.181Z,98212.84
2022-09-20T02:37:25.905Z,98220.22
2022-09-20T02:39:58.789Z,98220.22
2022-09-20T02:42:30.220Z,98225.69
2022-09-20T02:45:34.617Z,98221.03
2022-09-20T02:48:04.487Z,98217.66
2022-09-20T02:50:49.888Z,98222.63
2022-09-20T02:53:37.384Z,98228.09
2022-09-20T02:56:13.628Z,98224.53
2022-09-20T02:59:19.180Z,98226.44
2022-09-20T03:02:04.705Z,98219.91
2022-09-20T03:04:44.436Z,98230.84
2022-09-20T03:07:31.462Z,98232.47
2022-09-20T03:10:20.856Z,98230.84
2022-09-20T03:13:02.264Z,98218.72
2022-09-20T03:15:32.250Z,98235.19
2022-09-20T03:18:17.467Z,98231.63
2022-09-20T03:20:48.576Z,98232.47
2022-09-20T03:23:49.617Z,98236.31
2022-09-20T03:26:41.252Z,98239.03
2022-09-20T03:29:38.672Z,98226.38
2022-09-20T03:32:44.011Z,98243.09
2022-09-20T03:35:28.431Z,98241.41
2022-09-20T03:38:02.352Z,98254.25
2022-09-20T03:40:40.729Z,98250.72
2022-09-20T03:43:47.376Z,98249.63
2022-09-20T03:46:21.393Z,98247.16
2022-09-20T03:49:03.301Z,98255.91
2022-09-20T03:51:33.959Z,98259.47
2022-09-20T03:54:39.657Z,98261.13
2022-09-20T03:57:34.842Z,98255.91
2022-09-20T04:00:09.391Z,98263.88
2022-09-20T04:03:10.203Z,98269.59
2022-09-20T04:05:37.109Z,98269.59
2022-09-20T04:08:14.356Z,98267.13
2022-09-20T04:10:53.378Z,98267.91
2022-09-20T04:13:32.388Z,98264.63
2022-09-20T04:16:11.023Z,98282.09
2022-09-20T04:18:58.903Z,98271.16
2022-09-20T04:21:36.389Z,98284.84
2022-09-20T04:24:03.261Z,98276.06
2022-09-20T04:26:31.939Z,98281.53
2022-09-20T04:29:32.147Z,98289.75
2022-09-20T04:32:04.088Z,98282.34
2022-09-20T04:34:54.653Z,98278.28
2022-09-20T04:37:35.562Z,98286.50
2022-09-20T04:40:16.828Z,98282.69
2022-09-20T04:43:08.277Z,98284.59
2022-09-20T04:45:55.178Z,98283.53
2022-09-20T04:49:06.611Z,98286.50
2022-09-20T04:52:07.629Z,98284.84
2022-09-20T04:54:58.927Z,98286.50
2022-09-20T04:57:54.861Z,98288.63
2022-09-20T05:00:24.971Z,98296.00
2022-09-20T05:03:12.742Z,98294.38
2022-09-20T05:05:42.498Z,98291.63
2022-09-20T05:08:27.907Z,98301.75
2022-09-20T05:11:02.181Z,98299.25
2022-09-20T05:13:38.179Z,98306.38
2022-09-20T05:16:08.851Z,98305.53
2022-09-20T05:18:51.623Z,98313.50
2022-09-20T05:21:18.555Z,98316.47
2022-09-20T05:24:23.894Z,98315.66
2022-09-20T05:27:22.533Z,98313.22
2022-09-20T05:30:06.825Z,98312.69
2022-09-20T05:33:13.053Z,98323.34
2022-09-20T05:35:43.543Z,98326.91
2022-09-20T05:38:31.084Z,98310.94
2022-09-20T05:41:34.973Z,98325.25
2022-09-20T05:44:04.905Z,98330.97
2022-09-20T05:46:53.916Z,98320.28
2022-09-20T05:49:35.774Z,98330.66
2022-09-20T05:52:40.333Z,98330.38
2022-09-20T05:55:07.177Z,98335.00
2022-09-20T05:57:34.303Z,98332.28
2022-09-20T06:00:13.718Z,98336.69
2022-09-20T06:03:01.675Z,98322.94
2022-09-20T06:05:46.512Z,98339.41
2022-09-20T06:08:25.454Z,98340.00
2022-09-20T06:11:00.819Z,98346.53
2022-09-20T06:13:45.900Z,98344.13
2022-09-20T06:16:18.140Z,98349.59
2022-09-20T06:19:11.295Z,98352.09
2022-09-20T06:21:53.262Z,98351.25
2022-09-20T06:25:01.239Z,98340.84
2022-09-20T06:27:34.371Z,98352.59
2022-09-20T06:30:05.995Z,98358.53
2022-09-20T06:32:34.986Z,98348.44
2022-09-20T06:35:02.776Z,98350.34
2022-09-20T06:38:10.838Z,98364.00
2022-09-20T06:41:05.091Z,98345.31
2022-09-20T06:43:32.032Z,98363.69
2022-09-20T06:45:59.191Z,98363.19
2022-09-20T06:48:26.193Z,98353.06
2022-09-20T06:50:53.171Z,98367.81
2022-09-20T06:53:31.422Z,98370.31
2022-09-20T06:55:58.536Z,98373.03
2022-09-20T06:58:25.555Z,98373.63
2022-09-20T07:00:53.687Z,98370.63
2022-09-20T07:03:20.628Z,98384.56
2022-09-20T07:05:47.646Z,98381.56
2022-09-20T07:08:14.620Z,98385.94
2022-09-20T07:10:41.770Z,98383.97
2022-09-20T07:13:11.412Z,98382.06
2022-09-20T07:15:38.426Z,98393.81
2022-09-20T07:18:05.566Z,98402.84
2022-09-20T07:20:32.532Z,98395.72
2022-09-20T07:22:59.652Z,98400.03
2022-09-20T07:25:26.707Z,98395.09
2022-09-20T07:27:53.781Z,98409.38
2022-09-20T07:30:20.845Z,98414.63
2022-09-20T07:32:47.798Z,98409.38
2022-09-20T07:35:15.585Z,98407.25
2022-09-20T07:37:42.811Z,98408.56
2022-09-20T07:40:11.114Z,98421.72
2022-09-20T07:42:38.203Z,98408.88
2022-09-20T07:45:05.704Z,98420.66
2022-09-20T07:47:35.712Z,98418.75
2022-09-20T07:50:03.583Z,98422.53
2022-09-20T07:52:30.615Z,98424.81
2022-09-20T07:54:57.845Z,98428.59
2022-09-20T07:57:24.774Z,98424.22
2022-09-20T07:59:51.875Z,98425.88
2022-09-20T08:02:18.923Z,98423.66
2022-09-20T08:04:45.975Z,98433.25
2022-09-20T08:07:12.992Z,98432.31
2022-09-20T08:09:39.992Z,98429.59
2022-09-20T08:14:55.951Z,98439.22
2022-09-20T08:17:22.981Z,98443.34
2022-09-20T08:19:50.902Z,98441.44
2022-09-20T08:22:17.973Z,98440.03
2022-09-20T08:24:44.987Z,98440.59
2022-09-20T08:27:12.074Z,98447.16
2022-09-20T08:29:39.129Z,98446.66
2022-09-20T08:32:06.275Z,98438.47
2022-09-20T08:34:33.296Z,98442.84
2022-09-20T08:37:00.263Z,98449.41
2022-09-20T08:42:23.607Z,98449.13
2022-09-20T08:45:01.168Z,98452.13
2022-09-20T08:47:58.475Z,98435.31
2022-09-20T08:50:26.018Z,98453.19
2022-09-20T08:53:00.094Z,98453.13
2022-09-20T08:55:36.401Z,98441.19
2022-09-20T08:58:08.150Z,98455.69
2022-09-20T09:00:36.580Z,98452.13
2022-09-20T09:03:13.463Z,98460.91
2022-09-20T09:05:50.881Z,98462.56
2022-09-20T09:08:19.633Z,98451.63
2022-09-20T09:10:55.033Z,98458.16
2022-09-20T09:13:46.147Z,98453.19
2022-09-20T09:16:21.989Z,98450.78
2022-09-20T09:18:51.938Z,98459.00
2022-09-20T09:21:26.326Z,98452.13
2022-09-20T09:24:19.373Z,98457.09
2022-09-20T09:26:46.875Z,98448.91
2022-09-20T09:29:23.641Z,98450.22
2022-09-20T09:31:52.179Z,98448.31
2022-09-20T09:34:29.762Z,98462.56
2022-09-20T09:36:57.256Z,98453.78
2022-09-20T09:39:28.071Z,98457.09
2022-09-20T09:41:55.273Z,98455.94
2022-09-20T09:44:27.957Z,98443.56
2022-09-20T09:46:55.733Z,98459.81
2022-09-20T09:49:23.407Z,98451.63
2022-09-20T09:52:13.394Z,98462.56
2022-09-20T09:55:04.160Z,98451.88
2022-09-20T09:58:00.005Z,98452.47
2022-09-20T10:00:27.524Z,98450.47
2022-09-20T10:03:17.785Z,98450.78
2022-09-20T10:05:59.703Z,98450.56
2022-09-20T10:08:36.012Z,98441.69
2022-09-20T10:11:21.011Z,98444.50
2022-09-20T10:13:57.955Z,98443.44
2022-09-20T10:16:57.166Z,98447.00
2022-09-20T10:19:42.912Z,98455.19
2022-09-20T10:23:06.644Z,98451.63
2022-09-20T10:26:05.048Z,98453.28
2022-09-20T10:28:53.310Z,98451.63
2022-09-20T10:31:46.360Z,98452.22
2022-09-20T10:34:54.641Z,98448.66
2022-09-20T10:37:38.240Z,98452.22
2022-09-20T10:40:17.193Z,98444.81
2022-09-20T10:43:09.111Z,98445.34
2022-09-20T10:46:14.407Z,98448.38
2022-09-20T10:48:33.011Z,98436.06
2022-09-20T10:51:00.992Z,98444.03
2022-09-20T10:53:52.750Z,98441.03
2022-09-20T10:56:31.470Z,98430.34
2022-09-20T10:59:32.793Z,98434.47
2022-09-20T11:02:24.705Z,98432.50
2022-09-20T11:05:26.475Z,98445.97
2022-09-20T11:08:03.565Z,98454.44
2022-09-20T11:10:36.442Z,98461.59
2022-09-20T11:13:10.937Z,98461.59
2022-09-20T11:15:42.011Z,98449.81
2022-09-20T11:18:14.785Z,98441.03
2022-09-20T11:20:49.844Z,98452.28
2022-09-20T11:23:25.563Z,98451.44
2022-09-20T11:25:57.214Z,98451.44
2022-09-20T11:28:31.157Z,98454.69
2022-09-20T11:31:22.572Z,98461.59
2022-09-20T11:33:52.523Z,98454.19
2022-09-20T11:36:34.500Z,98459.09
2022-09-20T11:39:07.665Z,98470.84
2022-09-20T11:41:34.650Z,98456.13
2022-09-20T11:44:04.862Z,98452.78
2022-09-20T11:46:38.869Z,98451.44
2022-09-20T11:49:16.012Z,98450.88
2022-09-20T11:52:00.864Z,98455.59
2022-09-20T11:54:42.965Z,98427.13
2022-09-20T11:57:14.066Z,98447.41
2022-09-20T11:59:42.387Z,98446.34
2022-09-20T12:02:33.701Z,98448.78
2022-09-20T12:05:02.203Z,98450.22
2022-09-20T12:07:38.314Z,98447.97
2022-09-20T12:10:22.264Z,98448.88
2022-09-20T12:12:51.412Z,98437.13
2022-09-20T12:15:35.057Z,98440.19
2022-09-20T12:18:12.648Z,98440.44
2022-09-20T12:20:39.517Z,98440.56
2022-09-20T12:23:41.195Z,98440.28
2022-09-20T12:26:23.224Z,98431.84
2022-09-20T12:28:54.112Z,98417.22
2022-09-20T12:31:29.434Z,98431.34
2022-09-20T12:34:11.829Z,98428.59
2022-09-20T12:36:45.039Z,98443.69
2022-09-20T12:39:12.005Z,98444.53
2022-09-20T12:41:47.743Z,98438.53
2022-09-20T12:44:35.033Z,98436.13
2022-09-20T12:47:26.468Z,98431.25
2022-09-20T12:50:15.829Z,98424.44
2022-09-20T12:52:57.412Z,98420.38
2022-09-20T12:55:27.415Z,98418.22
2022-09-20T12:58:02.829Z,98420.63
2022-09-20T13:01:14.641Z,98435.53
2022-09-20T13:03:45.158Z,98429.22
2022-09-20T13:06:16.681Z,98423.50
2022-09-20T13:08:49.987Z,98425.75
2022-09-20T13:11:42.649Z,98418.94
2022-09-20T13:14:25.330Z,98431.03
2022-09-20T13:16:56.757Z,98423.06
2022-09-20T13:19:34.948Z,98414.03
2022-09-20T13:22:07.247Z,98423.22
2022-09-20T13:24:42.213Z,98421.03
2022-09-20T13:27:19.289Z,98419.19
2022-09-20T13:29:46.648Z,98417.88
2022-09-20T13:32:17.986Z,98418.19
2022-09-20T13:34:46.014Z,98417.59
2022-09-20T13:37:21.942Z,98427.31
2022-09-20T13:39:49.187Z,98410.34
2022-09-20T13:42:19.584Z,98420.78
2022-09-20T13:44:47.529Z,98418.88
2022-09-20T13:47:28.496Z,98424.66
2022-09-20T13:50:17.759Z,98429.13
2022-09-20T13:52:52.780Z,98422.06
2022-09-20T13:55:34.595Z,98418.25
2022-09-20T13:58:03.382Z,98419.41
2022-09-20T14:00:30.826Z,98426.88
2022-09-20T14:02:57.926Z,98423.59
2022-09-20T14:05:27.074Z,98416.78
2022-09-20T14:07:54.136Z,98417.94
2022-09-20T14:10:37.263Z,98415.75
2022-09-20T14:13:07.148Z,98419.06
2022-09-20T14:15:37.191Z,98418.28
2022-09-20T14:18:07.071Z,98419.44
2022-09-20T14:20:34.338Z,98423.56
2022-09-20T14:23:01.576Z,98424.69
2022-09-20T14:25:28.756Z,98411.25
2022-09-20T14:28:06.750Z,98422.00
2022-09-20T14:30:36.567Z,98421.50
2022-09-20T14:33:05.002Z,98424.78
2022-09-20T14:35:31.976Z,98411.69
2022-09-20T14:38:08.872Z,98408.63
2022-09-20T14:40:47.363Z,98429.56
2022-09-20T14:43:34.064Z,98438.66
2022-09-20T14:46:17.355Z,98437.56
2022-09-20T14:48:45.671Z,98436.47
2022-09-20T14:51:19.134Z,98435.97
2022-09-20T14:53:47.030Z,98432.41
2022-09-20T14:56:15.363Z,98441.50
2022-09-20T14:59:05.707Z,98426.38
2022-09-20T15:01:33.439Z,98440.72
2022-09-20T15:04:06.397Z,98429.41
2022-09-20T15:06:36.230Z,98441.53
2022-09-20T15:09:04.544Z,98437.69
2022-09-20T15:11:31.733Z,98445.66
2022-09-20T15:13:58.634Z,98448.94
2022-09-20T15:16:25.626Z,98444.84
2022-09-20T15:18:52.623Z,98441.84
2022-09-20T15:21:19.600Z,98437.69
2022-09-20T15:23:46.522Z,98445.09
2022-09-20T15:26:14.385Z,98454.13
2022-09-20T15:28:41.478Z,98456.88
2022-09-20T15:31:09.747Z,98464.56
2022-09-20T15:33:36.736Z,98474.69
2022-09-20T15:36:04.047Z,98471.38
2022-09-20T15:38:31.070Z,98473.28
2022-09-20T15:41:06.141Z,98473.56
2022-09-20T15:43:33.153Z,98481.47
2022-09-20T15:46:23.449Z,98482.03
2022-09-20T15:48:50.545Z,98487.75
2022-09-20T15:51:17.638Z,98491.28
2022-09-20T15:53:46.227Z,98485.81
2022-09-20T15:56:27.666Z,98481.09
2022-09-20T15:59:02.119Z,98499.47
2022-09-20T16:01:32.601Z,98502.22
2022-09-20T16:04:00.038Z,98498.38
2022-09-20T16:06:27.034Z,98507.69
2022-09-20T16:08:54.021Z,98507.94
2022-09-20T16:11:22.949Z,98503.78
2022-09-20T16:13:56.162Z,98515.28
2022-09-20T16:16:23.457Z,98499.38
2022-09-20T16:19:09.009Z,98522.38
2022-09-20T16:21:37.556Z,98525.94
2022-09-20T16:24:05.930Z,98523.19
2022-09-20T16:26:33.400Z,98527.53
2022-09-20T16:29:00.710Z,98536.00
2022-09-20T16:31:48.031Z,98523.66
2022-09-20T16:34:17.321Z,98533.50
2022-09-20T16:36:44.645Z,98537.59
2022-09-20T16:39:12.255Z,98543.09
2022-09-20T16:41:42.265Z,98533.13
2022-09-20T16:44:09.454Z,98539.19
2022-09-20T16:46:39.504Z,98549.56
2022-09-20T16:49:07.641Z,98551.50
2022-09-20T16:51:36.599Z,98548.94
2022-09-20T16:54:04.959Z,98561.31
2022-09-20T16:56:34.279Z,98561.25
2022-09-20T17:00:15.866Z,98570.03
2022-09-20T17:02:47.747Z,98575.38
2022-09-20T17:05:15.586Z,98572.63
2022-09-20T17:07:44.129Z,98574.81
2022-09-20T17:10:11.574Z,98581.19
2022-09-20T17:12:42.742Z,98575.25
2022-09-20T17:15:13.303Z,98602.13
2022-09-20T17:17:40.357Z,98589.91
2022-09-20T17:20:08.039Z,98570.66
2022-09-20T17:22:35.573Z,98583.78
2022-09-20T17:25:02.704Z,98587.34
2022-09-20T17:27:29.725Z,98599.16
2022-09-20T17:29:56.741Z,98604.63
2022-09-20T17:32:24.267Z,98604.28
2022-09-20T17:34:51.282Z,98626.91
2022-09-20T17:37:18.560Z,98604.28
2022-09-20T17:39:45.817Z,98616.34
2022-09-20T17:42:12.838Z,98607.94
2022-09-20T17:44:39.859Z,98624.78
2022-09-20T17:47:07.339Z,98607.66
2022-09-20T17:49:34.939Z,98636.78
2022-09-20T17:52:02.293Z,98608.41
2022-09-20T17:54:29.330Z,98589.53
2022-09-20T17:56:56.496Z,98632.66
2022-09-20T17:59:23.576Z,98626.59
2022-09-20T18:01:52.146Z,98630.75
2022-09-20T18:04:21.105Z,98631.31
2022-09-20T18:06:49.261Z,98636.31
2022-09-20T18:09:17.692Z,98639.13
2022-09-20T18:11:49.599Z,98637.81
2022-09-20T18:14:21.290Z,98646.09
2022-09-20T18:16:48.223Z,98644.75
2022-09-20T18:19:16.406Z,98651.91
2022-09-20T18:21:43.485Z,98652.72
2022-09-20T18:24:10.947Z,98659.59
2022-09-20T18:26:38.358Z,98656.63
2022-09-20T18:29:06.898Z,98657.38
2022-09-20T18:31:38.375Z,98664.75
2022-09-20T18:34:06.909Z,98669.16
2022-09-20T18:36:36.904Z,98670.47
2022-09-20T18:39:04.093Z,98673.22
2022-09-20T18:41:34.573Z,98679.81
2022-09-20T18:44:04.274Z,98675.41
2022-09-20T18:46:31.617Z,98682.19
2022-09-20T18:49:05.240Z,98685.75
2022-09-20T18:51:37.146Z,98680.28
2022-09-20T18:54:06.541Z,98684.94
2022-09-20T18:56:37.511Z,98682.47
2022-09-20T18:59:06.888Z,98683.53
2022-09-20T19:01:55.712Z,98687.34
2022-09-20T19:04:25.669Z,98697.22
2022-09-20T19:07:11.091Z,98692.25
2022-09-20T19:09:54.812Z,98692.50
2022-09-20T19:12:43.473Z,98690.59
2022-09-20T19:15:16.329Z,98690.59
2022-09-20T19:17:58.156Z,98698.22
2022-09-20T19:20:35.417Z,98698.22
2022-09-20T19:23:37.890Z,98701.22
2022-09-20T19:26:22.342Z,98708.63
2022-09-20T19:28:50.521Z,98710.72
2022-09-20T19:31:30.948Z,98695.03
2022-09-20T19:33:59.568Z,98702.50
2022-09-20T19:36:40.288Z,98709.06
2022-09-20T19:39:27.928Z,98708.84
2022-09-20T19:42:16.689Z,98708.84
2022-09-20T19:44:54.592Z,98713.47
2022-09-20T19:47:52.355Z,98718.94
2022-09-20T19:50:28.064Z,98710.97
2022-09-20T19:52:58.526Z,98704.69
2022-09-20T19:55:25.854Z,98708.50
2022-09-20T19:57:53.553Z,98712.31
2022-09-20T20:00:21.220Z,98703.25
2022-09-20T20:02:48.582Z,98710.63
2022-09-20T20:05:20.264Z,98711.97
2022-09-20T20:07:55.879Z,98710.91
2022-09-20T20:10:31.620Z,98715.56
2022-09-20T20:13:32.016Z,98718.28
2022-09-20T20:16:03.333Z,98715.78
2022-09-20T20:18:42.643Z,98717.69
2022-09-20T20:21:36.802Z,98716.88
2022-09-20T20:24:07.808Z,98716.88
2022-09-20T20:26:35.398Z,98715.78
2022-09-20T20:29:02.423Z,98717.13
2022-09-20T20:31:30.475Z,98721.78
2022-09-20T20:33:57.534Z,98720.09
2022-09-20T20:36:24.611Z,98718.69
2022-09-20T20:38:53.319Z,98721.41
2022-09-20T20:41:21.948Z,98728.00
2022-09-20T20:43:50.225Z,98730.13
2022-09-20T20:46:20.767Z,98726.84
2022-09-20T20:48:48.084Z,98727.66
2022-09-20T20:51:19.365Z,98727.66
2022-09-20T20:53:51.334Z,98741.34
2022-09-20T20:56:26.505Z,98746.00
2022-09-20T20:58:53.864Z,98751.72
2022-09-20T21:01:25.884Z,98738.53
2022-09-20T21:03:53.725Z,98741.50
2022-09-20T21:06:21.583Z,98741.50
2022-09-20T21:08:49.750Z,98732.69
2022-09-20T21:11:23.635Z,98735.19
2022-09-20T21:13:51.565Z,98739.84
2022-09-20T21:16:23.282Z,98729.88
2022-09-20T21:18:50.539Z,98741.41
2022-09-20T21:21:20.903Z,98742.47
2022-09-20T21:23:49.777Z,98744.66
2022-09-20T21:26:16.756Z,98743.81
2022-09-20T21:28:51.680Z,98739.63
2022-09-20T21:31:19.198Z,98741.31
2022-09-20T21:33:46.239Z,98742.66
2022-09-20T21:36:17.442Z,98741.31
2022-09-20T21:38:44.826Z,98739.63
2022-09-20T21:41:18.727Z,98738.84
2022-09-20T21:43:46.627Z,98740.16
2022-09-20T21:46:17.935Z,98739.31
2022-09-20T21:48:45.785Z,98754.91
2022-09-20T21:51:14.247Z,98756.00
2022-09-20T21:53:41.254Z,98754.91
2022-09-20T21:56:18.704Z,98754.91
2022-09-20T21:58:48.680Z,98747.78
2022-09-20T22:01:20.184Z,98748.59
2022-09-20T22:04:01.136Z,98729.75
2022-09-20T22:06:32.868Z,98761.94
2022-09-20T22:09:04.442Z,98755.31
2022-09-20T22:11:33.480Z,98762.44
2022-09-20T22:14:00.565Z,98751.50
2022-09-20T22:16:29.116Z,98758.03
2022-09-20T22:18:56.315Z,98759.72
2022-09-20T22:21:29.758Z,98763.50
2022-09-20T22:24:03.780Z,98766.47
2022-09-20T22:26:40.913Z,98761.28
2022-09-20T22:29:08.027Z,98768.66
2022-09-20T22:31:36.687Z,98763.19
2022-09-20T22:34:05.505Z,98763.41
2022-09-20T22:36:34.421Z,98761.50
2022-09-20T22:39:01.711Z,98772.44
2022-09-20T22:41:28.736Z,98777.09
2022-09-20T22:43:56.092Z,98770.78
2022-09-20T22:46:27.071Z,98769.63
2022-09-20T22:48:54.059Z,98778.41
2022-09-20T22:51:22.878Z,98772.63
2022-09-20T22:53:50.007Z,98764.31
2022-09-20T22:56:22.098Z,98767.16
2022-09-20T22:58:51.088Z,98769.63
2022-09-20T23:01:28.082Z,98769.88
2022-09-20T23:04:06.282Z,98766.03
2022-09-20T23:06:34.156Z,98765.22
2022-09-20T23:09:02.373Z,98771.19
2022-09-20T23:11:29.644Z,98776.66
2022-09-20T23:13:58.278Z,98774.19
2022-09-20T23:16:29.547Z,98768.94
2022-09-20T23:18:58.559Z,98756.34
2022-09-20T23:21:25.662Z,98762.41
2022-09-20T23:23:57.304Z,98757.41
2022-09-20T23:26:25.615Z,98765.59
2022-09-20T23:28:54.619Z,98773.56
2022-09-20T23:31:21.550Z,98773.56
2022-09-20T23:33:55.484Z,98771.34
2022-09-20T23:36:22.583Z,98766.72
2022-09-20T23:38:49.616Z,98768.59
2022-09-20T23:41:18.505Z,98776.53
2022-09-20T23:43:45.651Z,98782.84
2022-09-20T23:46:13.140Z,98768.34
2022-09-20T23:48:43.237Z,98769.19
2022-09-20T23:51:12.966Z,98775.16
2022-09-20T23:53:39.992Z,98780.63
2022-09-20T23:56:07.472Z,98785.47
2022-09-20T23:58:36.209Z,98785.47
